Anahola, Hawaii
Current Conditions -  °F | °C
As of 11:44 PM on Wednesday 22 Oct 2014 (Local Time) from PHLI Reporting Station
Broken Clouds Broken Clouds  
Wind Chill: 79°   Ceiling: 3000
Heat Index: 82°   Visibility: 10mi
Dew Point: 73°   Wind: 10mph
Humidity: 83%   Direction: 90°E
Pressure: 30.02"   Gusts: NA
Location:  22.14°N, 159.31°W
Report Text: PHLI 230944Z 09009KT 10SM FEW015 BKN030 26/23 A3002 RMK AO2 $
Loading
Personal Weather Stations






























Interactive Weather Map
Tropical Storm Tracking
New forecast layout! Learn more

10-Day Weather Forecast

Advertisements
Track Severe Weather on mobile